Terminal Aerodrome Forecast
Issued by NWS

Home | Current Version | Previous Version | Text Only | Print | Product List | Glossary On
Versions: 1 2 3 4 5 6 7 8 9 10 11 12 13 14 15 16 17 18 19 20 21 22 23 24 25
000
FTAK31 PAJN 261239 AAA
TAFAYA
TAF AMD
PAYA 261239Z 2613/2712 30005KT 6SM -RA BR FEW003 BKN015 OVC070
     FM261600 30005KT P6SM VCSH SCT015 BKN070
     FM261900 27008KT P6SM FEW008 SCT100
      AMD LTD TO CLD VIS AND WIND 2701/2709=

USA.gov is the U.S. government's official web portal to all federal, state and local government web resources and services.